createdAt,value
2023-01-31T00:04:25.257Z,68.41
2023-01-31T00:09:30.706Z,68.09
2023-01-31T00:14:36.157Z,68.09
2023-01-31T00:19:41.541Z,67.95
2023-01-31T00:24:47.014Z,67.53
2023-01-31T00:29:52.466Z,67.39
2023-01-31T00:34:57.866Z,67.20
2023-01-31T00:40:04.541Z,67.32
2023-01-31T00:45:16.353Z,67.66
2023-01-31T00:50:22.435Z,67.66
2023-01-31T00:55:27.901Z,67.45
2023-01-31T01:00:33.557Z,67.45
2023-01-31T01:05:39.572Z,67.35
2023-01-31T01:10:45.048Z,67.21
2023-01-31T01:15:50.577Z,67.19
2023-01-31T01:20:56.290Z,67.07
2023-01-31T01:26:01.747Z,67.08
2023-01-31T01:31:09.344Z,67.19
2023-01-31T01:36:17.519Z,67.12
2023-01-31T01:41:23.920Z,67.15
2023-01-31T01:46:35.238Z,67.26
2023-01-31T01:51:43.601Z,67.40
2023-01-31T01:56:52.109Z,67.50
2023-01-31T02:01:58.859Z,67.85
2023-01-31T02:07:06.488Z,67.97
2023-01-31T02:12:13.170Z,68.25
2023-01-31T02:17:20.920Z,68.42
2023-01-31T02:22:53.725Z,68.46
2023-01-31T02:28:11.026Z,68.51
2023-01-31T02:33:38.032Z,68.95
2023-01-31T02:38:59.098Z,69.17
2023-01-31T02:44:41.994Z,69.16
2023-01-31T02:49:56.316Z,69.30
2023-01-31T02:55:31.943Z,69.18
2023-01-31T03:00:40.729Z,69.45
2023-01-31T03:05:46.688Z,69.70
2023-01-31T03:11:03.837Z,69.79
2023-01-31T03:16:33.379Z,69.85
2023-01-31T03:21:47.480Z,69.88
2023-01-31T03:26:55.072Z,69.96
2023-01-31T03:32:05.032Z,69.98
2023-01-31T03:37:19.450Z,69.85
2023-01-31T03:42:38.503Z,69.77
2023-01-31T03:47:47.988Z,69.78
2023-01-31T03:53:17.777Z,69.87
2023-01-31T03:58:26.884Z,70.13
2023-01-31T04:03:41.702Z,70.24
2023-01-31T04:08:48.602Z,70.18
2023-01-31T04:13:54.159Z,70.38
2023-01-31T04:18:59.664Z,70.58
2023-01-31T04:24:05.477Z,70.65
2023-01-31T04:29:10.961Z,71.11
2023-01-31T04:34:16.636Z,71.48
2023-01-31T04:39:22.327Z,71.72
2023-01-31T04:44:27.803Z,71.93
2023-01-31T04:49:33.236Z,71.94
2023-01-31T04:54:38.757Z,72.00
2023-01-31T04:59:44.295Z,72.32
2023-01-31T05:04:50.042Z,72.43
2023-01-31T05:09:55.524Z,72.56
2023-01-31T05:15:01.926Z,72.90
2023-01-31T05:20:08.465Z,72.88
2023-01-31T05:25:13.849Z,73.12
2023-01-31T05:30:20.170Z,73.25
2023-01-31T05:35:25.792Z,73.36
2023-01-31T05:40:31.254Z,73.68
2023-01-31T05:45:36.810Z,73.87
2023-01-31T05:50:42.414Z,73.90
2023-01-31T05:55:50.108Z,74.08
2023-01-31T06:00:58.519Z,74.18
2023-01-31T06:06:05.338Z,74.17
2023-01-31T06:11:12.746Z,74.29
2023-01-31T06:16:18.443Z,74.47
2023-01-31T06:21:24.125Z,74.54
2023-01-31T06:26:29.674Z,74.78
2023-01-31T06:31:36.315Z,75.04
2023-01-31T06:36:41.998Z,75.17
2023-01-31T06:41:47.552Z,75.06
2023-01-31T06:46:53.141Z,75.14
2023-01-31T06:51:58.593Z,75.12
2023-01-31T06:57:04.111Z,75.26
2023-01-31T07:02:11.836Z,75.45
2023-01-31T07:07:17.329Z,75.29
2023-01-31T07:12:22.721Z,75.44
2023-01-31T07:17:28.247Z,75.67
2023-01-31T07:22:33.625Z,75.64
2023-01-31T07:27:39.105Z,75.44
2023-01-31T07:32:44.565Z,75.54
2023-01-31T07:37:51.822Z,75.50
2023-01-31T07:43:00.957Z,75.64
2023-01-31T07:48:07.601Z,75.60
2023-01-31T07:53:12.963Z,75.33
2023-01-31T07:58:18.684Z,75.34
2023-01-31T08:03:33.727Z,75.28
2023-01-31T08:08:40.010Z,75.14
2023-01-31T08:13:45.707Z,75.15
2023-01-31T08:18:52.541Z,74.69
2023-01-31T08:23:58.527Z,74.77
2023-01-31T08:29:03.997Z,74.82
2023-01-31T08:34:10.248Z,74.96
2023-01-31T08:39:15.782Z,74.96
2023-01-31T08:44:21.623Z,74.61
2023-01-31T08:49:27.205Z,74.61
2023-01-31T08:54:32.817Z,74.52
2023-01-31T08:59:38.230Z,74.52
2023-01-31T09:04:43.665Z,73.71
2023-01-31T09:09:49.782Z,74.03
2023-01-31T09:14:55.742Z,74.03
2023-01-31T09:20:02.818Z,73.95
2023-01-31T09:25:09.653Z,73.77
2023-01-31T09:30:16.477Z,73.75
2023-01-31T09:35:22.299Z,73.71
2023-01-31T09:40:30.717Z,73.71
2023-01-31T09:45:39.379Z,73.81
2023-01-31T09:50:50.471Z,73.70
2023-01-31T09:55:58.909Z,73.82
2023-01-31T10:01:13.398Z,74.09
2023-01-31T10:06:38.367Z,74.02
2023-01-31T10:11:50.236Z,73.89
2023-01-31T10:17:11.226Z,74.42
2023-01-31T10:22:19.861Z,74.60
2023-01-31T10:27:43.259Z,74.51
2023-01-31T10:32:54.746Z,74.97
2023-01-31T10:38:06.331Z,75.24
2023-01-31T10:43:14.764Z,75.25
2023-01-31T10:48:26.744Z,76.30
2023-01-31T10:53:49.979Z,75.95
2023-01-31T10:58:56.704Z,76.87
2023-01-31T11:04:03.819Z,76.87
2023-01-31T11:09:12.205Z,77.21
2023-01-31T11:14:20.784Z,77.52
2023-01-31T11:19:41.484Z,78.23
2023-01-31T11:24:50.163Z,78.80
2023-01-31T11:30:00.162Z,78.82
2023-01-31T11:35:17.482Z,79.39
2023-01-31T11:40:30.424Z,79.49
2023-01-31T11:45:39.886Z,79.91
2023-01-31T11:50:54.535Z,79.96
2023-01-31T11:56:03.033Z,80.32
2023-01-31T12:01:12.648Z,80.61
2023-01-31T12:06:35.829Z,80.94
2023-01-31T12:11:44.323Z,81.37
2023-01-31T12:16:51.231Z,81.68
2023-01-31T12:22:04.059Z,81.80
2023-01-31T12:27:44.209Z,82.01
2023-01-31T12:33:01.407Z,81.96
2023-01-31T12:38:39.426Z,82.23
2023-01-31T12:43:59.710Z,82.47
2023-01-31T12:49:17.125Z,82.78
2023-01-31T12:54:45.144Z,82.98
2023-01-31T13:00:05.772Z,83.51
2023-01-31T13:05:30.807Z,82.40
2023-01-31T13:10:39.301Z,83.34
2023-01-31T13:15:47.757Z,83.80
2023-01-31T13:20:56.677Z,83.60
2023-01-31T13:26:23.819Z,84.25
2023-01-31T13:31:32.435Z,84.67
2023-01-31T13:36:46.606Z,85.20
2023-01-31T13:41:52.338Z,85.20
2023-01-31T13:47:06.403Z,85.13
2023-01-31T13:52:24.070Z,85.72
2023-01-31T13:57:35.716Z,84.97
2023-01-31T14:02:42.782Z,85.23
2023-01-31T14:07:51.276Z,85.33
2023-01-31T14:13:16.290Z,85.22
2023-01-31T14:18:42.450Z,85.53
2023-01-31T14:23:48.370Z,85.85
2023-01-31T14:28:54.314Z,85.85
2023-01-31T14:34:00.775Z,86.22
2023-01-31T14:39:18.531Z,86.89
2023-01-31T14:44:32.529Z,86.89
2023-01-31T14:49:55.927Z,87.04
2023-01-31T14:55:24.132Z,87.26
2023-01-31T15:00:35.537Z,87.37
2023-01-31T15:05:47.305Z,87.82
2023-01-31T15:11:03.311Z,87.82
2023-01-31T15:16:23.826Z,87.97
2023-01-31T15:21:38.361Z,87.97
2023-01-31T15:26:44.295Z,88.12
2023-01-31T15:31:52.834Z,88.44
2023-01-31T15:37:10.755Z,88.43
2023-01-31T15:42:30.539Z,88.63
2023-01-31T15:47:36.095Z,88.51
2023-01-31T15:52:41.478Z,88.57
2023-01-31T15:57:59.116Z,88.80
2023-01-31T16:03:07.920Z,88.75
2023-01-31T16:08:34.890Z,89.01
2023-01-31T16:13:42.466Z,89.19
2023-01-31T16:18:51.356Z,89.31
2023-01-31T16:24:02.574Z,89.37
2023-01-31T16:29:11.004Z,89.60
2023-01-31T16:34:19.540Z,89.31
2023-01-31T16:39:31.038Z,89.40
2023-01-31T16:44:39.780Z,89.33
2023-01-31T16:49:47.074Z,89.46
2023-01-31T16:54:54.507Z,89.66
2023-01-31T17:00:00.621Z,89.96
2023-01-31T17:05:28.829Z,90.29
2023-01-31T17:10:37.599Z,90.29
2023-01-31T17:15:43.447Z,90.47
2023-01-31T17:20:50.909Z,90.73
2023-01-31T17:25:56.375Z,90.57
2023-01-31T17:31:02.057Z,90.64
2023-01-31T17:36:10.329Z,90.65
2023-01-31T17:41:18.831Z,90.66
2023-01-31T17:46:24.334Z,90.62
2023-01-31T17:51:29.851Z,90.61
2023-01-31T17:56:36.275Z,90.45
2023-01-31T18:01:41.702Z,90.59
2023-01-31T18:06:47.272Z,90.40
2023-01-31T18:11:52.866Z,90.36
2023-01-31T18:16:58.889Z,90.05
2023-01-31T18:22:04.483Z,89.87
2023-01-31T18:27:09.942Z,89.57
2023-01-31T18:32:15.459Z,89.58
2023-01-31T18:37:20.932Z,89.50
2023-01-31T18:42:26.631Z,89.58
2023-01-31T18:47:32.008Z,89.66
2023-01-31T18:52:37.533Z,89.55
2023-01-31T18:57:43.049Z,89.74
2023-01-31T19:02:55.784Z,89.50
2023-01-31T19:08:01.330Z,89.37
2023-01-31T19:13:06.804Z,89.53
2023-01-31T19:18:12.300Z,89.10
2023-01-31T19:23:17.682Z,85.01
2023-01-31T19:28:27.119Z,87.29
2023-01-31T19:33:32.876Z,88.79
2023-01-31T19:38:38.532Z,89.34
2023-01-31T19:43:44.508Z,90.10
2023-01-31T19:48:50.441Z,90.52
2023-01-31T19:53:59.217Z,90.59
2023-01-31T19:59:06.231Z,90.27
2023-01-31T20:04:11.803Z,89.55
2023-01-31T20:09:19.657Z,89.35
2023-01-31T20:14:25.478Z,89.04
2023-01-31T20:19:33.100Z,88.66
2023-01-31T20:24:39.381Z,88.48
2023-01-31T20:29:45.283Z,87.67
2023-01-31T20:34:55.616Z,87.15
2023-01-31T20:40:04.093Z,86.76
2023-01-31T20:45:10.518Z,86.59
2023-01-31T20:50:16.108Z,86.21
2023-01-31T20:55:23.875Z,86.17
2023-01-31T21:00:30.805Z,85.71
2023-01-31T21:05:38.560Z,85.36
2023-01-31T21:10:51.719Z,84.75
2023-01-31T21:16:02.095Z,84.69
2023-01-31T21:21:11.511Z,84.58
2023-01-31T21:26:18.394Z,82.62
2023-01-31T21:31:28.746Z,83.57
2023-01-31T21:36:36.501Z,83.88
2023-01-31T21:42:01.252Z,83.87
2023-01-31T21:47:07.104Z,84.39
2023-01-31T21:52:12.494Z,83.98
2023-01-31T21:57:18.157Z,83.98
2023-01-31T22:02:24.049Z,84.04
2023-01-31T22:07:29.918Z,84.09
2023-01-31T22:12:37.920Z,84.07
2023-01-31T22:17:43.391Z,84.08
2023-01-31T22:22:48.880Z,84.02
2023-01-31T22:27:54.771Z,83.54
2023-01-31T22:33:00.243Z,83.54
2023-01-31T22:38:05.633Z,83.19
2023-01-31T22:43:12.431Z,82.92
2023-01-31T22:48:19.218Z,82.67
2023-01-31T22:53:26.172Z,82.30
2023-01-31T22:58:32.174Z,81.89
2023-01-31T23:03:37.655Z,82.09
2023-01-31T23:08:43.660Z,81.37
2023-01-31T23:13:49.553Z,81.34
2023-01-31T23:18:55.037Z,81.08
2023-01-31T23:24:00.565Z,81.47
2023-01-31T23:29:06.051Z,80.78
2023-01-31T23:34:11.604Z,80.68
2023-01-31T23:39:16.990Z,80.68
2023-01-31T23:44:22.428Z,80.55
2023-01-31T23:49:27.958Z,80.61
2023-01-31T23:54:33.435Z,80.59
2023-01-31T23:59:38.990Z,80.65
